Pinon, Arizona
Current Conditions -  °F | °C
As of 7:53 AM on Thursday 23 Oct 2014 (Local Time) from KRQE Reporting Station
Clear Clear  
Wind Chill: 32°   Ceiling: Unl
Heat Index: 32°   Visibility: 10mi
Dew Point: 26°   Wind: 3mph
Humidity: 79%   Direction: 210°SSW
Pressure: 30.33"   Gusts: NA
Location:  36.1°N, 110.23°W
Report Text: KRQE 231353Z AUTO 21003KT 10SM CLR 00/M03 A3033 RMK AO2 SLP227 T00001033 TSNO
Loading
Personal Weather Stations






























Interactive Weather Map
Tropical Storm Tracking
New forecast layout! Learn more

10-Day Weather Forecast

Advertisements
Track Severe Weather on mobile